Terminal Aerodrome Forecast
Issued by NWS

Current Version | Previous Version | Text Only | Print | Product List | Glossary Off
Versions: 1 2 3 4 5 6 7 8 9 10 11 12 13 14 15 16 17 18 19 20 21 22

000
FTUS41 KRNK 191140
TAFLWB
TAF
KLWB 191140Z 1912/2012 00000KT 1/4SM FG VV001
     FM191400 VRB03KT P6SM SCT045
     FM200000 00000KT P6SM SKC
     FM200800 00000KT 1/4SM FG VV001=

USA.gov is the U.S. government's official web portal to all federal, state and local government web resources and services.